Strona główna
METAR-TAF:

METAR-TAF

Lotnisko :

Użhorod, Ukraina

Port lotniczy Użhorod

Szerokość geograficzna: 48-38-05N, Długość geograficzna: 022-15-53E, wysokość: 117 m

Aktualna obserwacja pogody

Raport powstał 5 godziny i 29 minut temu, godzina 20:00 UTC
Wiatr 8 kt od północno-północny zachód, zmienny między zachodnio-północny zachód i północny wschód
Temperatura -6°C
Wilgotność 53%
Ciśnienie 1020 hPa
Widzialność 10 km lub więcej
Rozproszone chmury na wysokości 4000 ft

METAR: UKLU 242000Z 33004MPS 300V040 9999 SCT040 M06/M14 Q1020 NOSIG

czas: 03:29 (01:29 UTC)

Prognoza

Raport powstał 8 godziny i 23 minut temu, godzina 17:06 UTC
Prognoza ważna od 24 godzina 18 UTC do 25 godzina 03 UTC
Wiatr 10 kt od północno-północny zachód
Widzialność 10 km lub więcej
Przejściowo
od 24 godzina 18 UTC do 24 godzina 24 UTC
Wiatr 12 kt od północ w porywach dochodzący do 21 kt

TAF: UKLU 241706Z 2418/2503 33005MPS 9999 NSC TEMPO 2418/2424 36006G11MPS TXM05/2418Z TNM10/2503Z

Obserwacja i prognoza pogody dla ponad 4000 lotnisk (raport METAR i TAF).

Dostępne stacje oznaczono żółtymi i czerwonymi punktami na mapie.

Najedź kursorem aby zobaczyć nazwę stacji.

Kliknij aby zobaczyć obserwacje i prognozy pogody.

Aby zmienić mapę: kliknij na zielony przycisk z czarnym krzyżykiem, aby powiększyć; na zielony przycisk z myślnikiem, aby pomniejszyć; na zielone strzałki, aby przejść do map sąsiednich.


METAR-TAF: